createdAt,value
2022-12-15T00:00:19.091Z,99315.00
2022-12-15T00:03:04.453Z,99218.41
2022-12-15T00:05:51.168Z,99304.63
2022-12-15T00:08:36.824Z,99294.34
2022-12-15T00:11:23.064Z,99282.06
2022-12-15T00:14:08.739Z,99268.22
2022-12-15T00:17:10.712Z,99302.31
2022-12-15T00:19:55.893Z,99304.56
2022-12-15T00:22:41.340Z,99314.16
2022-12-15T00:25:26.827Z,99309.72
2022-12-15T00:28:15.365Z,99313.84
2022-12-15T00:31:02.719Z,99323.94
2022-12-15T00:33:49.782Z,99307.59
2022-12-15T00:36:35.039Z,99321.94
2022-12-15T00:39:04.038Z,99306.34
2022-12-15T00:41:32.382Z,99316.09
2022-12-15T00:44:00.483Z,99224.13
2022-12-15T00:46:45.696Z,99310.09
2022-12-15T00:49:28.994Z,99333.69
2022-12-15T00:52:15.184Z,99337.78
2022-12-15T00:55:00.515Z,99335.53
2022-12-15T00:57:45.782Z,99345.66
2022-12-15T01:00:32.407Z,99345.50
2022-12-15T01:03:17.604Z,99345.72
2022-12-15T01:06:04.221Z,99311.53
2022-12-15T01:08:49.540Z,99340.16
2022-12-15T01:11:34.798Z,99343.47
2022-12-15T01:14:20.178Z,99343.63
2022-12-15T01:17:05.373Z,99345.06
2022-12-15T01:19:50.660Z,99328.59
2022-12-15T01:22:20.016Z,99330.44
2022-12-15T01:24:47.979Z,99353.09
2022-12-15T01:27:15.834Z,99352.88
2022-12-15T01:29:44.067Z,99337.31
2022-12-15T01:32:12.207Z,99289.00
2022-12-15T01:34:40.512Z,99255.09
2022-12-15T01:37:08.612Z,99358.56
2022-12-15T01:39:55.374Z,99339.38
2022-12-15T01:42:23.297Z,99364.09
2022-12-15T01:44:53.321Z,99352.75
2022-12-15T01:47:26.479Z,99353.28
2022-12-15T01:49:55.988Z,99326.13
2022-12-15T01:52:23.928Z,99296.34
2022-12-15T01:54:57.126Z,99345.31
2022-12-15T01:57:30.077Z,99343.25
2022-12-15T02:00:02.696Z,99377.34
2022-12-15T02:02:35.632Z,99380.69
2022-12-15T02:05:09.194Z,99374.47
2022-12-15T02:07:37.013Z,99368.28
2022-12-15T02:10:10.255Z,99295.25
2022-12-15T02:12:46.378Z,99057.38
2022-12-15T02:15:21.652Z,99374.16
2022-12-15T02:17:58.704Z,99342.28
2022-12-15T02:20:52.454Z,99386.63
2022-12-15T02:24:10.615Z,99388.41
2022-12-15T02:27:14.131Z,99331.81
2022-12-15T02:30:10.631Z,99378.53
2022-12-15T02:32:44.347Z,99404.25
2022-12-15T02:35:17.926Z,99410.31
2022-12-15T02:37:49.858Z,99406.09
2022-12-15T02:40:18.858Z,99340.91
2022-12-15T02:42:52.566Z,99245.19
2022-12-15T02:45:25.351Z,99404.97
2022-12-15T02:48:01.881Z,99348.41
2022-12-15T02:50:59.453Z,99407.16
2022-12-15T02:53:46.991Z,99409.19
2022-12-15T02:56:24.560Z,99242.38
2022-12-15T02:59:04.028Z,99424.91
2022-12-15T03:01:38.020Z,99426.38
2022-12-15T03:04:09.485Z,99425.69
2022-12-15T03:06:38.360Z,99431.66
2022-12-15T03:09:06.546Z,99428.38
2022-12-15T03:11:35.198Z,99431.34
2022-12-15T03:14:03.083Z,99437.38
2022-12-15T03:16:31.068Z,99396.78
2022-12-15T03:19:00.560Z,99433.84
2022-12-15T03:21:28.437Z,99401.41
2022-12-15T03:23:56.376Z,99392.63
2022-12-15T03:26:24.751Z,99441.06
2022-12-15T03:28:52.806Z,99452.03
2022-12-15T03:31:20.774Z,99456.34
2022-12-15T03:33:48.843Z,99459.09
2022-12-15T03:36:18.099Z,99401.47
2022-12-15T03:38:46.069Z,99411.97
2022-12-15T03:41:14.037Z,99338.44
2022-12-15T03:43:42.126Z,99450.78
2022-12-15T03:46:10.161Z,99235.72
2022-12-15T03:48:38.465Z,99424.25
2022-12-15T03:51:06.632Z,99454.94
2022-12-15T03:53:36.280Z,99456.00
2022-12-15T03:56:04.514Z,99460.31
2022-12-15T03:58:32.587Z,99446.16
2022-12-15T04:01:00.648Z,99470.88
2022-12-15T04:03:29.077Z,99470.25
2022-12-15T04:05:57.572Z,99454.38
2022-12-15T04:08:26.952Z,99202.81
2022-12-15T04:10:56.308Z,99462.88
2022-12-15T04:13:24.259Z,99476.94
2022-12-15T04:15:52.185Z,99461.88
2022-12-15T04:18:20.379Z,99454.72
2022-12-15T04:20:47.486Z,99419.19
2022-12-15T04:23:18.401Z,99416.72
2022-12-15T04:26:03.701Z,99477.06
2022-12-15T04:28:50.816Z,99406.22
2022-12-15T04:31:39.345Z,99482.50
2022-12-15T04:34:29.532Z,99464.69
2022-12-15T04:37:15.059Z,99436.78
2022-12-15T04:40:04.614Z,99485.19
2022-12-15T04:42:51.618Z,99484.25
2022-12-15T04:45:41.733Z,99496.53
2022-12-15T04:48:27.586Z,99496.59
2022-12-15T04:51:13.566Z,99478.03
2022-12-15T04:53:58.738Z,99497.25
2022-12-15T04:56:44.651Z,99498.28
2022-12-15T04:59:29.912Z,99497.53
2022-12-15T05:02:17.042Z,99491.84
2022-12-15T05:05:02.391Z,99499.63
2022-12-15T05:07:47.399Z,99499.13
2022-12-15T05:10:33.209Z,99506.69
2022-12-15T05:13:23.266Z,99450.47
2022-12-15T05:16:08.587Z,99425.19
2022-12-15T05:18:55.882Z,99498.09
2022-12-15T05:21:41.181Z,99488.19
2022-12-15T05:24:27.021Z,99494.06
2022-12-15T05:27:12.309Z,99510.84
2022-12-15T05:29:57.739Z,99508.44
2022-12-15T05:32:25.721Z,99488.81
2022-12-15T05:34:55.248Z,99477.75
2022-12-15T05:37:23.066Z,99511.56
2022-12-15T05:39:50.987Z,99518.56
2022-12-15T05:42:18.881Z,99451.88
2022-12-15T05:44:46.871Z,99446.63
2022-12-15T05:47:17.987Z,99459.28
2022-12-15T05:49:45.823Z,99537.13
2022-12-15T05:52:15.156Z,99529.56
2022-12-15T05:54:43.028Z,99430.56
2022-12-15T05:57:10.955Z,99447.25
2022-12-15T05:59:38.925Z,99536.94
2022-12-15T06:02:07.699Z,99472.44
2022-12-15T06:04:35.837Z,99544.63
2022-12-15T06:07:04.097Z,99545.66
2022-12-15T06:09:33.399Z,99510.47
2022-12-15T06:12:01.334Z,99567.09
2022-12-15T06:14:29.222Z,99562.56
2022-12-15T06:16:57.378Z,99547.69
2022-12-15T06:19:25.244Z,99546.78
2022-12-15T06:21:53.235Z,99553.75
2022-12-15T06:24:21.409Z,99530.69
2022-12-15T06:26:50.816Z,99564.63
2022-12-15T06:29:19.014Z,99565.19
2022-12-15T06:31:47.075Z,99566.97
2022-12-15T06:34:17.207Z,99536.00
2022-12-15T06:36:45.631Z,99580.50
2022-12-15T06:39:15.302Z,99578.16
2022-12-15T06:41:44.217Z,99538.41
2022-12-15T06:44:16.207Z,99580.75
2022-12-15T06:46:46.062Z,99591.66
2022-12-15T06:49:14.991Z,99562.91
2022-12-15T06:51:44.353Z,99466.66
2022-12-15T06:54:13.009Z,99596.72
2022-12-15T06:56:42.283Z,99464.44
2022-12-15T06:59:12.670Z,99603.72
2022-12-15T07:01:43.036Z,99595.25
2022-12-15T07:04:11.655Z,99597.06
2022-12-15T07:06:40.857Z,99559.13
2022-12-15T07:09:13.595Z,99594.72
2022-12-15T07:11:41.717Z,99573.41
2022-12-15T07:14:10.998Z,99604.97
2022-12-15T07:16:39.322Z,99458.88
2022-12-15T07:19:11.805Z,99607.97
2022-12-15T07:21:39.781Z,99578.16
2022-12-15T07:24:08.553Z,99582.50
2022-12-15T07:26:36.687Z,99628.59
2022-12-15T07:29:04.654Z,99568.38
2022-12-15T07:31:32.735Z,99553.06
2022-12-15T07:34:00.723Z,99622.44
2022-12-15T07:36:30.132Z,99638.22
2022-12-15T07:39:01.888Z,99583.69
2022-12-15T07:41:30.303Z,99642.97
2022-12-15T07:43:58.694Z,99638.06
2022-12-15T07:46:27.467Z,99640.56
2022-12-15T07:48:55.647Z,99633.28
2022-12-15T07:51:23.547Z,99631.47
2022-12-15T07:53:53.253Z,99649.41
2022-12-15T07:56:21.809Z,99662.91
2022-12-15T07:58:50.139Z,99665.75
2022-12-15T08:01:18.192Z,99662.63
2022-12-15T08:03:46.776Z,99666.94
2022-12-15T08:06:16.272Z,99679.56
2022-12-15T08:08:50.609Z,99656.41
2022-12-15T08:11:22.329Z,99524.66
2022-12-15T08:14:10.602Z,99671.63
2022-12-15T08:16:39.275Z,99662.22
2022-12-15T08:19:09.048Z,99678.28
2022-12-15T08:21:37.064Z,99682.03
2022-12-15T08:24:05.523Z,99679.59
2022-12-15T08:26:34.938Z,99685.34
2022-12-15T08:29:48.825Z,99676.47
2022-12-15T08:31:53.286Z,99680.38
2022-12-15T08:34:21.626Z,99681.47
2022-12-15T08:36:49.566Z,99685.88
2022-12-15T08:39:17.577Z,99689.91
2022-12-15T08:41:47.791Z,99671.94
2022-12-15T08:44:17.187Z,99684.34
2022-12-15T08:46:45.597Z,99652.81
2022-12-15T08:49:19.527Z,99665.34
2022-12-15T08:51:50.000Z,99682.53
2022-12-15T08:54:19.238Z,99677.53
2022-12-15T08:56:48.636Z,99687.38
2022-12-15T08:59:17.034Z,99687.47
2022-12-15T09:01:45.153Z,99688.59
2022-12-15T09:04:13.971Z,99642.13
2022-12-15T09:06:42.159Z,99687.78
2022-12-15T09:09:13.198Z,99693.50
2022-12-15T09:11:41.298Z,99699.03
2022-12-15T09:14:10.924Z,99703.69
2022-12-15T09:16:38.980Z,99706.53
2022-12-15T09:19:08.455Z,99670.69
2022-12-15T09:21:36.472Z,99700.84
2022-12-15T09:24:05.251Z,99722.78
2022-12-15T09:26:35.711Z,99709.81
2022-12-15T09:29:03.940Z,99703.72
2022-12-15T09:31:37.388Z,99701.25
2022-12-15T09:34:05.361Z,99663.63
2022-12-15T09:36:33.868Z,99665.47
2022-12-15T09:39:03.390Z,99633.94
2022-12-15T09:41:33.735Z,99714.22
2022-12-15T09:44:04.914Z,99717.69
2022-12-15T09:46:50.372Z,99714.25
2022-12-15T09:49:30.717Z,99501.16
2022-12-15T09:52:03.505Z,99717.94
2022-12-15T09:54:35.607Z,99717.16
2022-12-15T09:57:08.894Z,99718.06
2022-12-15T09:59:46.122Z,99683.09
2022-12-15T10:02:39.482Z,99473.75
2022-12-15T10:05:19.103Z,99720.16
2022-12-15T10:07:50.495Z,99709.69
2022-12-15T10:10:25.227Z,99714.97
2022-12-15T10:13:02.357Z,99726.34
2022-12-15T10:15:36.247Z,99720.28
2022-12-15T10:18:14.599Z,99729.91
2022-12-15T10:20:43.184Z,99673.78
2022-12-15T10:23:13.397Z,99730.00
2022-12-15T10:25:47.997Z,99725.88
2022-12-15T10:28:45.205Z,99736.38
2022-12-15T10:31:26.082Z,99720.81
2022-12-15T10:33:58.904Z,99710.34
2022-12-15T10:36:27.053Z,99707.69
2022-12-15T10:38:54.919Z,99735.00
2022-12-15T10:41:25.778Z,99728.84
2022-12-15T10:43:55.263Z,99724.44
2022-12-15T10:46:36.071Z,99732.31
2022-12-15T10:49:23.317Z,99724.50
2022-12-15T10:51:56.164Z,99708.69
2022-12-15T10:54:27.788Z,99728.09
2022-12-15T10:56:57.393Z,99732.47
2022-12-15T10:59:30.846Z,99720.31
2022-12-15T11:02:26.030Z,99618.63
2022-12-15T11:04:58.269Z,99718.56
2022-12-15T11:07:29.441Z,99709.84
2022-12-15T11:10:00.460Z,99712.50
2022-12-15T11:12:50.694Z,99721.28
2022-12-15T11:15:44.178Z,99708.16
2022-12-15T11:18:28.402Z,99716.94
2022-12-15T11:21:05.671Z,99640.69
2022-12-15T11:23:51.519Z,99700.31
2022-12-15T11:26:39.071Z,99721.34
2022-12-15T11:29:19.609Z,99718.75
2022-12-15T11:31:48.846Z,99724.84
2022-12-15T11:34:20.280Z,99723.13
2022-12-15T11:37:09.479Z,99699.41
2022-12-15T11:39:50.525Z,99701.22
2022-12-15T11:42:31.944Z,99717.88
2022-12-15T11:45:09.017Z,99588.22
2022-12-15T11:47:44.955Z,99673.25
2022-12-15T11:50:25.073Z,99585.66
2022-12-15T11:53:09.640Z,99715.34
2022-12-15T11:55:47.589Z,99700.44
2022-12-15T11:58:55.233Z,99720.63
2022-12-15T12:01:52.670Z,99718.91
2022-12-15T12:04:26.503Z,99601.44
2022-12-15T12:07:07.139Z,99611.97
2022-12-15T12:09:38.579Z,99672.44
2022-12-15T12:12:16.853Z,99702.25
2022-12-15T12:15:08.943Z,99619.91
2022-12-15T12:17:43.345Z,99703.13
2022-12-15T12:20:18.838Z,99703.16
2022-12-15T12:22:56.618Z,99592.75
2022-12-15T12:25:27.840Z,99683.88
2022-12-15T12:28:01.181Z,99698.78
2022-12-15T12:30:36.272Z,99701.41
2022-12-15T12:33:12.330Z,99699.66
2022-12-15T12:35:47.362Z,99694.41
2022-12-15T12:38:21.347Z,99675.09
2022-12-15T12:41:04.154Z,99682.16
2022-12-15T12:43:35.521Z,99689.13
2022-12-15T12:46:11.518Z,99661.13
2022-12-15T12:48:44.856Z,99606.78
2022-12-15T12:51:28.613Z,99690.88
2022-12-15T12:53:57.168Z,99691.78
2022-12-15T12:56:37.520Z,99542.00
2022-12-15T12:59:26.687Z,99690.03
2022-12-15T13:01:56.165Z,99682.16
2022-12-15T13:04:40.511Z,99681.25
2022-12-15T13:07:30.302Z,99684.78
2022-12-15T13:10:13.743Z,99664.59
2022-12-15T13:12:52.626Z,99683.03
2022-12-15T13:15:36.107Z,99686.50
2022-12-15T13:18:19.000Z,99676.00
2022-12-15T13:20:50.963Z,99682.13
2022-12-15T13:23:41.288Z,99689.16
2022-12-15T13:26:15.671Z,99688.28
2022-12-15T13:28:50.705Z,99670.75
2022-12-15T13:31:28.307Z,99633.91
2022-12-15T13:34:02.483Z,99558.63
2022-12-15T13:36:55.098Z,99666.34
2022-12-15T13:39:52.861Z,99670.72
2022-12-15T13:42:39.105Z,99507.00
2022-12-15T13:45:36.757Z,99654.09
2022-12-15T13:48:19.790Z,99669.88
2022-12-15T13:50:53.954Z,99654.09
2022-12-15T13:53:25.343Z,99643.56
2022-12-15T13:56:19.717Z,99658.47
2022-12-15T13:58:55.805Z,99660.19
2022-12-15T14:01:32.255Z,99652.31
2022-12-15T14:04:07.081Z,99653.19
2022-12-15T14:06:41.784Z,99654.91
2022-12-15T14:09:16.541Z,99654.06
2022-12-15T14:11:55.016Z,99653.19
2022-12-15T14:14:26.010Z,99648.81
2022-12-15T14:16:59.653Z,99658.41
2022-12-15T14:19:32.033Z,99657.50
2022-12-15T14:22:03.706Z,99656.59
2022-12-15T14:24:41.161Z,99656.53
2022-12-15T14:27:09.831Z,99654.84
2022-12-15T14:29:37.722Z,99653.91
2022-12-15T14:32:07.553Z,99652.16
2022-12-15T14:34:41.165Z,99632.91
2022-12-15T14:37:13.500Z,99652.16
2022-12-15T14:39:45.168Z,99605.69
2022-12-15T14:42:19.967Z,99631.09
2022-12-15T14:44:51.330Z,99660.84
2022-12-15T14:47:26.961Z,99659.03
2022-12-15T14:49:57.555Z,99652.84
2022-12-15T14:52:29.516Z,99630.91
2022-12-15T14:54:59.732Z,99603.75
2022-12-15T14:57:28.539Z,99650.22
2022-12-15T14:59:56.570Z,99608.97
2022-12-15T15:02:28.696Z,99605.47
2022-12-15T15:05:02.416Z,99655.31
2022-12-15T15:07:32.269Z,99652.63
2022-12-15T15:10:01.944Z,99647.38
2022-12-15T15:12:42.629Z,99618.50
2022-12-15T15:15:17.094Z,99640.34
2022-12-15T15:17:51.578Z,99643.03
2022-12-15T15:20:22.579Z,99617.63
2022-12-15T15:23:05.656Z,99594.78
2022-12-15T15:25:41.495Z,99633.38
2022-12-15T15:28:16.433Z,99628.13
2022-12-15T15:30:48.702Z,99635.91
2022-12-15T15:33:19.408Z,99591.19
2022-12-15T15:35:52.036Z,99633.16
2022-12-15T15:38:24.161Z,99631.31
2022-12-15T15:40:54.739Z,99636.44
2022-12-15T15:43:24.046Z,99599.56
2022-12-15T15:45:59.091Z,99623.28
2022-12-15T15:48:31.181Z,99636.47
2022-12-15T15:51:01.762Z,99634.72
2022-12-15T15:53:32.894Z,99639.84
2022-12-15T15:56:02.115Z,99571.34
2022-12-15T15:58:30.364Z,99620.31
2022-12-15T16:00:58.690Z,99640.34
2022-12-15T16:03:28.374Z,99578.78
2022-12-15T16:05:57.347Z,99616.41
2022-12-15T16:08:31.212Z,99652.34
2022-12-15T16:10:59.453Z,99653.13
2022-12-15T16:13:27.919Z,99554.88
2022-12-15T16:15:56.298Z,99647.03
2022-12-15T16:18:24.253Z,99647.00
2022-12-15T16:20:53.952Z,99658.50
2022-12-15T16:23:24.961Z,99667.44
2022-12-15T16:25:55.321Z,99610.34
2022-12-15T16:28:25.273Z,99670.84
2022-12-15T16:30:53.792Z,99679.53
2022-12-15T16:33:22.387Z,99682.06
2022-12-15T16:35:51.568Z,99683.66
2022-12-15T16:38:25.579Z,99672.22
2022-12-15T16:40:55.456Z,99691.53
2022-12-15T16:43:24.662Z,99693.94
2022-12-15T16:45:54.455Z,99685.00
2022-12-15T16:48:22.835Z,99692.81
2022-12-15T16:50:53.264Z,99655.81
2022-12-15T16:53:28.215Z,99700.53
2022-12-15T16:55:59.815Z,99627.53
2022-12-15T16:58:29.929Z,99630.06
2022-12-15T17:00:58.500Z,99710.75
2022-12-15T17:03:27.879Z,99547.91
2022-12-15T17:05:57.619Z,99723.94
2022-12-15T17:08:30.997Z,99678.03
2022-12-15T17:10:59.696Z,99731.47
2022-12-15T17:13:37.819Z,99730.47
2022-12-15T17:16:14.277Z,99615.91
2022-12-15T17:18:42.924Z,99733.88
2022-12-15T17:21:17.108Z,99735.53
2022-12-15T17:23:49.572Z,99743.69
2022-12-15T17:26:29.058Z,99741.09
2022-12-15T17:29:00.127Z,99739.44
2022-12-15T17:31:34.714Z,99676.06
2022-12-15T17:34:22.610Z,99735.28
2022-12-15T17:36:50.825Z,99710.78
2022-12-15T17:39:21.610Z,99724.00
2022-12-15T17:42:05.928Z,99710.59
2022-12-15T17:44:38.276Z,99742.03
2022-12-15T17:47:09.190Z,99745.19
2022-12-15T17:49:38.632Z,99710.88
2022-12-15T17:52:13.577Z,99746.84
2022-12-15T17:54:43.247Z,99727.41
2022-12-15T17:57:12.895Z,99686.81
2022-12-15T17:59:40.816Z,99759.56
2022-12-15T18:02:12.015Z,99685.72
2022-12-15T18:04:40.431Z,99759.91
2022-12-15T18:07:15.016Z,99741.50
2022-12-15T18:09:44.262Z,99750.81
2022-12-15T18:12:18.870Z,99768.25
2022-12-15T18:14:46.739Z,99716.66
2022-12-15T18:17:14.944Z,99763.03
2022-12-15T18:19:42.825Z,99738.25
2022-12-15T18:22:14.313Z,99768.44
2022-12-15T18:24:42.274Z,99676.25
2022-12-15T18:27:21.703Z,99771.78
2022-12-15T18:29:49.641Z,99769.56
2022-12-15T18:32:18.476Z,99774.66
2022-12-15T18:34:46.932Z,99781.38
2022-12-15T18:37:17.470Z,99781.38
2022-12-15T18:39:46.139Z,99783.88
2022-12-15T18:42:18.729Z,99739.59
2022-12-15T18:44:49.928Z,99800.13
2022-12-15T18:47:19.294Z,99779.38
2022-12-15T18:49:47.436Z,99775.94
2022-12-15T18:52:18.792Z,99765.47
2022-12-15T18:54:48.069Z,99770.59
2022-12-15T18:57:30.355Z,99768.78
2022-12-15T18:59:59.940Z,99735.50
2022-12-15T19:02:28.013Z,99772.56
2022-12-15T19:04:56.033Z,99769.81
2022-12-15T19:07:24.045Z,99782.78
2022-12-15T19:09:52.136Z,99751.00
2022-12-15T19:12:20.061Z,99762.13
2022-12-15T19:14:51.759Z,99762.47
2022-12-15T19:17:39.127Z,99776.25
2022-12-15T19:20:33.028Z,99772.00
2022-12-15T19:23:00.965Z,99758.50
2022-12-15T19:25:30.539Z,99746.25
2022-12-15T19:28:00.087Z,99764.13
2022-12-15T19:30:33.152Z,99764.75
2022-12-15T19:33:04.333Z,99768.03
2022-12-15T19:35:33.376Z,99762.91
2022-12-15T19:38:04.525Z,99753.00
2022-12-15T19:40:36.496Z,99756.44
2022-12-15T19:43:05.177Z,99736.97
2022-12-15T19:45:34.848Z,99757.03
2022-12-15T19:48:02.784Z,99755.91
2022-12-15T19:50:36.278Z,99761.13
2022-12-15T19:53:08.224Z,99766.84
2022-12-15T19:55:37.308Z,99769.41
2022-12-15T19:58:22.242Z,99632.19
2022-12-15T20:00:55.892Z,99732.09
2022-12-15T20:03:23.934Z,99765.13
2022-12-15T20:05:53.671Z,99762.22
2022-12-15T20:08:24.626Z,99661.06
2022-12-15T20:10:53.895Z,99734.25
2022-12-15T20:13:22.691Z,99757.09
2022-12-15T20:15:50.856Z,99700.75
2022-12-15T20:18:20.300Z,99738.53
2022-12-15T20:20:49.978Z,99732.97
2022-12-15T20:23:20.609Z,99762.03
2022-12-15T20:25:48.648Z,99683.00
2022-12-15T20:28:20.204Z,99751.03
2022-12-15T20:30:48.816Z,99724.63
2022-12-15T20:33:17.324Z,99757.91
2022-12-15T20:35:48.172Z,99759.53
2022-12-15T20:38:20.923Z,99756.81
2022-12-15T20:40:49.196Z,99736.53
2022-12-15T20:43:20.490Z,99761.75
2022-12-15T20:45:56.345Z,99760.75
2022-12-15T20:48:26.598Z,99758.16
2022-12-15T20:50:55.885Z,99757.34
2022-12-15T20:53:26.556Z,99767.94
2022-12-15T20:55:56.094Z,99765.91
2022-12-15T20:58:29.769Z,99730.66
2022-12-15T21:01:00.966Z,99617.97
2022-12-15T21:03:31.517Z,99758.66
2022-12-15T21:06:01.560Z,99746.44
2022-12-15T21:08:32.024Z,99763.06
2022-12-15T21:11:08.456Z,99760.34
2022-12-15T21:13:36.608Z,99691.34
2022-12-15T21:16:04.605Z,99732.72
2022-12-15T21:21:27.269Z,99692.38
2022-12-15T21:23:56.182Z,99724.66
2022-12-15T21:26:25.919Z,99767.59
2022-12-15T21:28:59.071Z,99720.22
2022-12-15T21:31:27.401Z,99676.28
2022-12-15T21:33:55.621Z,99756.81
2022-12-15T21:36:25.497Z,99773.03
2022-12-15T21:38:53.467Z,99768.94
2022-12-15T21:41:24.392Z,99778.44
2022-12-15T21:43:52.576Z,99722.03
2022-12-15T21:46:28.399Z,99616.13
2022-12-15T21:49:14.414Z,99787.34
2022-12-15T21:51:46.627Z,99783.13
2022-12-15T21:54:19.251Z,99786.66
2022-12-15T21:56:48.546Z,99718.41
2022-12-15T21:59:19.900Z,99730.78
2022-12-15T22:01:48.532Z,99768.59
2022-12-15T22:04:19.642Z,99782.84
2022-12-15T22:06:50.877Z,99798.56
2022-12-15T22:09:21.145Z,99795.31
2022-12-15T22:11:52.904Z,99799.78
2022-12-15T22:14:26.335Z,99807.84
2022-12-15T22:16:55.847Z,99779.56
2022-12-15T22:19:24.102Z,99794.50
2022-12-15T22:21:53.526Z,99799.97
2022-12-15T22:24:21.686Z,99765.50
2022-12-15T22:26:50.044Z,99770.38
2022-12-15T22:29:21.726Z,99804.72
2022-12-15T22:31:50.670Z,99799.50
2022-12-15T22:34:21.638Z,99738.03
2022-12-15T22:36:50.794Z,99750.38
2022-12-15T22:39:21.613Z,99758.25
2022-12-15T22:41:52.323Z,99787.19
2022-12-15T22:44:23.956Z,99769.78
2022-12-15T22:46:54.881Z,99734.38
2022-12-15T22:49:26.151Z,99793.97
2022-12-15T22:51:54.938Z,99789.97
2022-12-15T22:54:26.766Z,99770.84
2022-12-15T22:56:58.727Z,99597.97
2022-12-15T22:59:31.495Z,99774.16
2022-12-15T23:02:00.013Z,99749.28
2022-12-15T23:04:28.007Z,99786.31
2022-12-15T23:06:56.056Z,99803.00
2022-12-15T23:09:25.447Z,99810.91
2022-12-15T23:11:52.566Z,99792.13
2022-12-15T23:14:40.711Z,99808.34
2022-12-15T23:17:07.741Z,99786.69
2022-12-15T23:19:36.584Z,99772.31
2022-12-15T23:22:05.226Z,99705.22
2022-12-15T23:24:37.582Z,99805.88
2022-12-15T23:27:05.514Z,99785.28
2022-12-15T23:29:33.469Z,99668.34
2022-12-15T23:32:01.727Z,99817.34
2022-12-15T23:34:29.620Z,99781.16
2022-12-15T23:36:58.225Z,99706.28
2022-12-15T23:39:26.225Z,99822.13
2022-12-15T23:41:55.463Z,99834.25
2022-12-15T23:44:23.413Z,99699.66
2022-12-15T23:46:51.701Z,99812.00
2022-12-15T23:49:19.585Z,99782.97
2022-12-15T23:51:48.346Z,99835.00
2022-12-15T23:54:16.780Z,99793.59
2022-12-15T23:56:44.697Z,99825.25
2022-12-15T23:59:14.173Z,99828.41
